createdAt,value
2018-06-13T00:00:53.313Z,68.41
2018-06-13T00:03:21.900Z,68.87
2018-06-13T00:05:50.555Z,68.34
2018-06-13T00:08:19.214Z,68.43
2018-06-13T00:10:47.866Z,68.71
2018-06-13T00:13:16.645Z,68.91
2018-06-13T00:15:45.307Z,68.08
2018-06-13T00:18:13.930Z,68.43
2018-06-13T00:20:42.562Z,68.33
2018-06-13T00:23:11.261Z,69.21
2018-06-13T00:25:39.986Z,68.28
2018-06-13T00:28:08.669Z,67.87
2018-06-13T00:30:37.383Z,67.40
2018-06-13T00:33:06.166Z,68.19
2018-06-13T00:35:34.850Z,67.74
2018-06-13T00:38:03.529Z,67.52
2018-06-13T00:40:32.222Z,67.97
2018-06-13T00:43:01.049Z,68.27
2018-06-13T00:45:29.700Z,68.33
2018-06-13T00:47:58.473Z,67.62
2018-06-13T00:50:29.051Z,67.84
2018-06-13T00:52:57.731Z,67.87
2018-06-13T00:55:26.485Z,68.59
2018-06-13T00:57:55.128Z,68.13
2018-06-13T01:00:23.957Z,68.50
2018-06-13T01:02:52.615Z,68.98
2018-06-13T01:05:21.225Z,68.81
2018-06-13T01:07:49.872Z,68.95
2018-06-13T01:10:18.677Z,68.94
2018-06-13T01:12:47.501Z,68.81
2018-06-13T01:15:16.120Z,69.13
2018-06-13T01:17:44.932Z,68.87
2018-06-13T01:20:14.538Z,68.55
2018-06-13T01:22:43.286Z,68.31
2018-06-13T01:25:12.306Z,68.78
2018-06-13T01:27:40.975Z,69.19
2018-06-13T01:30:09.565Z,69.32
2018-06-13T01:32:38.283Z,69.16
2018-06-13T01:35:07.040Z,68.87
2018-06-13T01:37:35.674Z,68.69
2018-06-13T01:40:04.269Z,68.86
2018-06-13T01:42:33.119Z,69.44
2018-06-13T01:45:01.890Z,69.99
2018-06-13T01:47:30.905Z,70.37
2018-06-13T01:49:59.634Z,70.15
2018-06-13T01:52:28.338Z,70.00
2018-06-13T01:54:56.996Z,69.95
2018-06-13T01:57:25.895Z,69.97
2018-06-13T01:59:54.502Z,69.95
2018-06-13T02:02:23.104Z,70.05
2018-06-13T02:04:51.938Z,70.08
2018-06-13T02:07:20.627Z,69.73
2018-06-13T02:09:49.367Z,70.08
2018-06-13T02:12:18.144Z,69.58
2018-06-13T02:14:46.750Z,69.79
2018-06-13T02:17:15.430Z,69.37
2018-06-13T02:19:44.354Z,69.30
2018-06-13T02:22:14.129Z,69.70
2018-06-13T02:24:42.712Z,69.02
2018-06-13T02:27:11.725Z,69.07
2018-06-13T02:29:40.395Z,68.79
2018-06-13T02:32:09.045Z,68.59
2018-06-13T02:34:37.695Z,68.30
2018-06-13T02:37:06.327Z,67.84
2018-06-13T02:39:35.007Z,67.91
2018-06-13T02:42:03.618Z,67.92
2018-06-13T02:44:32.255Z,67.62
2018-06-13T02:47:00.879Z,68.35
2018-06-13T02:49:29.464Z,67.46
2018-06-13T02:51:58.130Z,66.97
2018-06-13T02:54:26.827Z,66.97
2018-06-13T02:56:55.482Z,67.08
2018-06-13T02:59:24.039Z,67.20
2018-06-13T03:01:52.802Z,66.96
2018-06-13T03:04:21.673Z,67.41
2018-06-13T03:06:50.371Z,67.58
2018-06-13T03:09:19.065Z,68.60
2018-06-13T03:11:47.684Z,67.17
2018-06-13T03:14:16.406Z,66.74
2018-06-13T03:16:45.448Z,66.89
2018-06-13T03:19:14.067Z,66.84
2018-06-13T03:21:42.797Z,67.20
2018-06-13T03:24:11.396Z,67.23
2018-06-13T03:26:39.979Z,67.00
2018-06-13T03:29:09.003Z,66.73
2018-06-13T03:31:37.744Z,66.89
2018-06-13T03:34:06.470Z,66.40
2018-06-13T03:36:35.210Z,66.94
2018-06-13T03:39:04.074Z,66.56
2018-06-13T03:41:33.062Z,66.78
2018-06-13T03:44:02.034Z,66.92
2018-06-13T03:46:30.749Z,66.28
2018-06-13T03:48:59.483Z,66.32
2018-06-13T03:51:28.144Z,66.42
2018-06-13T03:53:56.850Z,66.24
2018-06-13T03:56:25.663Z,65.68
2018-06-13T03:58:54.576Z,65.77
2018-06-13T04:01:23.299Z,66.00
2018-06-13T04:03:52.262Z,65.74
2018-06-13T04:06:21.191Z,65.49
2018-06-13T04:08:49.798Z,64.83
2018-06-13T04:11:18.531Z,64.63
2018-06-13T04:13:47.309Z,64.22
2018-06-13T04:16:15.984Z,64.19
2018-06-13T04:18:44.802Z,63.96
2018-06-13T04:21:13.894Z,63.74
2018-06-13T04:23:42.475Z,63.32
2018-06-13T04:26:11.269Z,63.11
2018-06-13T04:28:40.002Z,62.67
2018-06-13T04:31:08.616Z,62.92
2018-06-13T04:33:37.318Z,63.05
2018-06-13T04:36:05.965Z,62.71
2018-06-13T04:38:34.623Z,62.39
2018-06-13T04:41:03.336Z,62.26
2018-06-13T04:43:32.083Z,62.19
2018-06-13T04:46:00.948Z,61.62
2018-06-13T04:48:30.265Z,61.15
2018-06-13T04:50:58.962Z,61.58
2018-06-13T04:53:28.230Z,61.15
2018-06-13T04:55:57.155Z,60.57
2018-06-13T04:58:25.884Z,60.92
2018-06-13T05:00:54.526Z,60.94
2018-06-13T05:03:23.333Z,60.46
2018-06-13T05:05:52.119Z,60.94
2018-06-13T05:08:20.945Z,60.42
2018-06-13T05:10:49.583Z,59.40
2018-06-13T05:13:18.424Z,59.35
2018-06-13T05:15:47.219Z,58.62
2018-06-13T05:18:15.859Z,58.80
2018-06-13T05:20:44.541Z,58.90
2018-06-13T05:23:13.298Z,58.42
2018-06-13T05:25:42.078Z,58.80
2018-06-13T05:28:11.049Z,59.08
2018-06-13T05:30:39.828Z,57.94
2018-06-13T05:33:08.765Z,57.92
2018-06-13T05:35:37.744Z,57.71
2018-06-13T05:38:06.472Z,57.77
2018-06-13T05:40:35.109Z,56.93
2018-06-13T05:43:04.258Z,55.65
2018-06-13T05:45:33.171Z,56.94
2018-06-13T05:48:01.769Z,56.96
2018-06-13T05:50:30.492Z,56.09
2018-06-13T05:52:59.188Z,55.28
2018-06-13T05:55:27.900Z,54.61
2018-06-13T05:57:56.722Z,54.55
2018-06-13T06:00:25.529Z,54.26
2018-06-13T06:02:54.338Z,53.15
2018-06-13T06:05:23.063Z,53.85
2018-06-13T06:07:51.849Z,51.33
2018-06-13T06:10:20.572Z,50.80
2018-06-13T06:12:49.327Z,51.28
2018-06-13T06:15:18.101Z,51.08
2018-06-13T06:17:46.689Z,51.77
2018-06-13T06:20:15.434Z,51.49
2018-06-13T06:22:44.123Z,50.87
2018-06-13T06:25:12.792Z,50.10
2018-06-13T06:27:41.737Z,50.61
2018-06-13T06:30:10.428Z,50.28
2018-06-13T06:32:39.115Z,50.67
2018-06-13T06:35:08.304Z,50.35
2018-06-13T06:37:37.220Z,49.83
2018-06-13T06:40:06.162Z,49.63
2018-06-13T06:42:35.016Z,49.51
2018-06-13T06:45:03.923Z,49.56
2018-06-13T06:47:33.548Z,49.42
2018-06-13T06:50:02.391Z,49.12
2018-06-13T06:52:31.014Z,48.89
2018-06-13T06:54:59.675Z,48.46
2018-06-13T06:57:28.385Z,48.58
2018-06-13T06:59:56.959Z,48.82
2018-06-13T07:02:25.545Z,47.86
2018-06-13T07:04:54.339Z,47.12
2018-06-13T07:07:23.093Z,45.48
2018-06-13T07:09:51.805Z,47.97
2018-06-13T07:12:20.551Z,48.28
2018-06-13T07:14:49.285Z,48.84
2018-06-13T07:17:18.049Z,47.50
2018-06-13T07:19:46.706Z,47.80
2018-06-13T07:22:15.351Z,48.17
2018-06-13T07:24:44.091Z,46.26
2018-06-13T07:27:12.720Z,47.23
2018-06-13T07:29:41.635Z,47.05
2018-06-13T07:32:10.331Z,47.10
2018-06-13T07:34:39.081Z,46.58
2018-06-13T07:37:07.739Z,47.47
2018-06-13T07:39:36.391Z,45.63
2018-06-13T07:42:05.374Z,45.76
2018-06-13T07:44:34.157Z,45.78
2018-06-13T07:47:02.946Z,46.14
2018-06-13T07:49:31.800Z,44.36
2018-06-13T07:52:00.659Z,44.57
2018-06-13T07:54:29.273Z,44.41
2018-06-13T07:56:58.202Z,44.53
2018-06-13T07:59:26.966Z,42.49
2018-06-13T08:01:55.594Z,44.08
2018-06-13T08:04:24.559Z,45.33
2018-06-13T08:06:53.474Z,43.23
2018-06-13T08:09:22.191Z,42.39
2018-06-13T08:11:50.826Z,43.16
2018-06-13T08:14:19.376Z,41.39
2018-06-13T08:16:48.132Z,40.32
2018-06-13T08:19:16.830Z,43.61
2018-06-13T08:21:45.596Z,44.63
2018-06-13T08:24:14.293Z,46.11
2018-06-13T08:26:43.516Z,47.27
2018-06-13T08:29:12.396Z,46.92
2018-06-13T08:31:41.129Z,49.10
2018-06-13T08:34:09.839Z,49.86
2018-06-13T08:36:38.495Z,50.02
2018-06-13T08:39:09.137Z,51.88
2018-06-13T08:41:38.700Z,50.87
2018-06-13T08:44:07.692Z,51.16
2018-06-13T08:46:36.813Z,51.89
2018-06-13T08:49:06.085Z,51.94
2018-06-13T08:51:34.857Z,51.98
2018-06-13T08:54:03.956Z,52.76
2018-06-13T08:56:32.814Z,51.70
2018-06-13T08:59:01.809Z,51.94
2018-06-13T09:01:30.620Z,51.91
2018-06-13T09:03:59.261Z,52.24
2018-06-13T09:06:28.343Z,52.46
2018-06-13T09:08:57.694Z,51.73
2018-06-13T09:11:26.964Z,51.85
2018-06-13T09:13:55.801Z,52.09
2018-06-13T09:16:24.763Z,50.88
2018-06-13T09:18:53.494Z,51.58
2018-06-13T09:21:22.342Z,51.88
2018-06-13T09:23:50.975Z,52.14
2018-06-13T09:26:19.954Z,53.19
2018-06-13T09:28:48.738Z,52.75
2018-06-13T09:31:17.406Z,52.76
2018-06-13T09:33:46.469Z,53.19
2018-06-13T09:36:15.234Z,54.43
2018-06-13T09:38:43.942Z,54.85
2018-06-13T09:41:12.817Z,56.14
2018-06-13T09:43:41.482Z,55.73
2018-06-13T09:46:12.015Z,55.90
2018-06-13T09:48:39.040Z,55.81
2018-06-13T09:51:07.909Z,55.79
2018-06-13T09:53:36.520Z,55.02
2018-06-13T09:56:05.857Z,53.95
2018-06-13T09:58:39.829Z,53.09
2018-06-13T10:01:12.739Z,53.34
2018-06-13T10:03:41.582Z,51.38
2018-06-13T10:06:10.393Z,50.99
2018-06-13T10:08:39.381Z,47.40
2018-06-13T10:11:08.323Z,46.63
2018-06-13T10:13:37.042Z,47.77
2018-06-13T10:16:05.967Z,45.95
2018-06-13T10:18:34.970Z,45.39
2018-06-13T10:21:03.620Z,46.70
2018-06-13T10:23:32.348Z,47.57
2018-06-13T10:26:01.185Z,48.87
2018-06-13T10:28:30.054Z,49.74
2018-06-13T10:30:58.792Z,49.35
2018-06-13T10:33:27.660Z,48.54
2018-06-13T10:35:56.572Z,49.08
2018-06-13T10:38:25.237Z,48.40
2018-06-13T10:40:53.970Z,48.10
2018-06-13T10:43:22.877Z,47.68
2018-06-13T10:45:51.568Z,44.91
2018-06-13T10:48:20.708Z,43.01
2018-06-13T10:50:49.536Z,42.99
2018-06-13T10:53:18.147Z,44.54
2018-06-13T10:59:18.966Z,39.81
2018-06-13T11:01:47.540Z,39.89
2018-06-13T11:04:16.260Z,37.33
2018-06-13T11:06:44.994Z,37.21
2018-06-13T11:09:13.732Z,37.35
2018-06-13T11:11:42.656Z,34.74
2018-06-13T11:14:11.772Z,36.14
2018-06-13T11:16:46.987Z,36.93
2018-06-13T11:19:16.040Z,37.34
2018-06-13T11:21:44.767Z,36.50
2018-06-13T11:24:14.204Z,36.79
2018-06-13T11:26:42.935Z,38.07
2018-06-13T11:29:12.112Z,38.10
2018-06-13T11:31:41.137Z,37.53
2018-06-13T11:34:10.226Z,38.16
2018-06-13T11:36:39.434Z,37.19
2018-06-13T11:39:10.096Z,37.27
2018-06-13T11:41:39.320Z,36.47
2018-06-13T11:44:08.068Z,35.69
2018-06-13T11:46:38.059Z,37.16
2018-06-13T11:49:07.137Z,38.21
2018-06-13T11:51:36.009Z,38.86
2018-06-13T11:54:05.134Z,39.81
2018-06-13T11:56:33.922Z,41.85
2018-06-13T11:59:02.824Z,40.80
2018-06-13T12:01:31.661Z,41.24
2018-06-13T12:04:00.638Z,40.19
2018-06-13T12:06:29.562Z,40.54
2018-06-13T12:08:58.477Z,40.26
2018-06-13T12:11:27.347Z,40.29
2018-06-13T12:13:56.325Z,40.14
2018-06-13T12:16:25.107Z,39.61
2018-06-13T12:18:53.728Z,39.32
2018-06-13T12:21:22.529Z,36.20
2018-06-13T12:23:51.307Z,34.26
2018-06-13T12:26:20.005Z,33.20
2018-06-13T12:28:48.758Z,27.86
2018-06-13T12:31:17.936Z,28.27
2018-06-13T12:33:46.796Z,29.02
2018-06-13T12:36:15.980Z,30.57
2018-06-13T12:38:44.820Z,26.56
2018-06-13T12:41:13.487Z,27.86
2018-06-13T12:43:42.310Z,29.84
2018-06-13T12:46:11.104Z,30.94
2018-06-13T12:48:40.143Z,30.79
2018-06-13T12:51:09.148Z,32.13
2018-06-13T12:53:38.723Z,32.13
2018-06-13T12:56:08.311Z,32.73
2018-06-13T12:58:37.733Z,33.90
2018-06-13T13:01:06.385Z,33.79
2018-06-13T13:03:35.095Z,34.51
2018-06-13T13:06:04.262Z,34.19
2018-06-13T13:08:33.414Z,34.73
2018-06-13T13:11:02.490Z,36.72
2018-06-13T13:13:31.453Z,36.39
2018-06-13T13:16:00.287Z,38.80
2018-06-13T13:18:29.062Z,41.02
2018-06-13T13:20:57.977Z,45.85
2018-06-13T13:23:26.989Z,47.22
2018-06-13T13:25:55.843Z,48.38
2018-06-13T13:28:25.152Z,47.81
2018-06-13T13:30:54.361Z,51.36
2018-06-13T13:33:23.857Z,50.97
2018-06-13T13:35:52.847Z,49.44
2018-06-13T13:38:21.739Z,50.68
2018-06-13T13:40:50.687Z,50.44
2018-06-13T13:43:19.525Z,51.75
2018-06-13T13:45:48.283Z,54.32
2018-06-13T13:48:16.896Z,52.18
2018-06-13T13:50:45.732Z,52.59
2018-06-13T13:53:14.477Z,52.33
2018-06-13T13:55:43.291Z,53.84
2018-06-13T13:58:11.980Z,51.75
2018-06-13T14:00:40.553Z,51.13
2018-06-13T14:03:09.353Z,47.44
2018-06-13T14:05:38.151Z,38.06
2018-06-13T14:08:06.919Z,36.91
2018-06-13T14:10:35.650Z,34.75
2018-06-13T14:13:04.449Z,35.52
2018-06-13T14:15:33.099Z,36.75
2018-06-13T14:18:01.726Z,37.51
2018-06-13T14:20:30.511Z,41.10
2018-06-13T14:22:59.262Z,43.81
2018-06-13T14:25:28.395Z,45.25
2018-06-13T14:27:57.392Z,45.44
2018-06-13T14:30:26.571Z,44.98
2018-06-13T14:32:55.392Z,42.88
2018-06-13T14:35:24.239Z,42.79
2018-06-13T14:37:53.449Z,41.21
2018-06-13T14:40:22.539Z,41.38
2018-06-13T14:42:51.822Z,38.99
2018-06-13T14:45:21.353Z,37.17
2018-06-13T14:47:50.260Z,38.21
2018-06-13T14:50:19.099Z,37.46
2018-06-13T14:52:47.889Z,33.88
2018-06-13T14:55:16.642Z,33.54
2018-06-13T14:57:45.595Z,31.56
2018-06-13T15:00:14.521Z,30.96
2018-06-13T15:02:43.172Z,30.08
2018-06-13T15:05:12.080Z,29.77
2018-06-13T15:07:40.870Z,27.20
2018-06-13T15:10:09.969Z,26.69
2018-06-13T15:12:38.887Z,26.28
2018-06-13T15:15:07.783Z,27.17
2018-06-13T15:17:36.605Z,28.04
2018-06-13T15:20:05.704Z,30.49
2018-06-13T15:22:34.392Z,33.07
2018-06-13T15:25:03.019Z,34.90
2018-06-13T15:27:31.770Z,34.41
2018-06-13T15:30:00.655Z,34.74
2018-06-13T15:32:29.692Z,36.77
2018-06-13T15:34:58.662Z,37.99
2018-06-13T15:37:27.437Z,38.30
2018-06-13T15:39:56.215Z,38.49
2018-06-13T15:42:25.021Z,38.32
2018-06-13T15:44:53.888Z,38.72
2018-06-13T15:47:22.756Z,39.21
2018-06-13T15:49:51.465Z,40.39
2018-06-13T15:52:20.446Z,40.40
2018-06-13T15:54:49.665Z,40.53
2018-06-13T15:57:18.544Z,40.65
2018-06-13T15:59:47.921Z,40.44
2018-06-13T16:02:16.921Z,40.73
2018-06-13T16:04:45.667Z,41.17
2018-06-13T16:07:14.630Z,41.46
2018-06-13T16:09:44.274Z,41.90
2018-06-13T16:12:13.345Z,41.05
2018-06-13T16:14:42.718Z,41.81
2018-06-13T16:17:12.377Z,42.38
2018-06-13T16:19:41.711Z,41.96
2018-06-13T16:22:10.899Z,42.09
2018-06-13T16:24:39.629Z,42.60
2018-06-13T16:27:08.581Z,43.20
2018-06-13T16:29:38.456Z,42.35
2018-06-13T16:32:07.316Z,42.82
2018-06-13T16:34:36.424Z,42.84
2018-06-13T16:37:07.419Z,44.15
2018-06-13T16:39:36.401Z,43.06
2018-06-13T16:42:05.503Z,42.94
2018-06-13T16:44:34.106Z,42.98
2018-06-13T16:47:02.924Z,43.74
2018-06-13T16:49:32.092Z,43.42
2018-06-13T16:52:06.060Z,43.79
2018-06-13T16:54:46.012Z,44.02
2018-06-13T16:57:14.724Z,44.18
2018-06-13T16:59:43.670Z,44.28
2018-06-13T17:02:12.644Z,44.48
2018-06-13T17:04:41.775Z,44.90
2018-06-13T17:07:10.401Z,44.98
2018-06-13T17:09:39.297Z,45.07
2018-06-13T17:12:08.290Z,44.88
2018-06-13T17:14:37.283Z,44.71
2018-06-13T17:17:05.944Z,45.19
2018-06-13T17:19:34.961Z,45.20
2018-06-13T17:22:03.748Z,45.51
2018-06-13T17:24:32.858Z,45.26
2018-06-13T17:27:01.567Z,45.16
2018-06-13T17:29:30.527Z,45.28
2018-06-13T17:31:59.583Z,44.56
2018-06-13T17:34:29.059Z,44.44
2018-06-13T17:36:58.057Z,44.59
2018-06-13T17:39:27.053Z,44.97
2018-06-13T17:41:56.132Z,45.22
2018-06-13T17:44:25.054Z,45.05
2018-06-13T17:46:54.992Z,44.84
2018-06-13T17:49:24.340Z,45.16
2018-06-13T17:51:53.120Z,45.66
2018-06-13T17:54:22.445Z,45.73
2018-06-13T17:56:51.526Z,45.98
2018-06-13T17:59:20.597Z,46.33
2018-06-13T18:01:49.405Z,46.54
2018-06-13T18:04:18.616Z,47.09
2018-06-13T18:06:47.352Z,48.63
2018-06-13T18:09:16.312Z,47.88
2018-06-13T18:11:45.336Z,47.30
2018-06-13T18:14:14.432Z,47.88
2018-06-13T18:16:43.485Z,48.43
2018-06-13T18:19:12.577Z,48.83
2018-06-13T18:21:41.672Z,49.56
2018-06-13T18:24:10.518Z,49.04
2018-06-13T18:26:39.814Z,48.93
2018-06-13T18:29:08.766Z,48.26
2018-06-13T18:31:38.129Z,47.75
2018-06-13T18:34:07.573Z,47.83
2018-06-13T18:36:36.713Z,47.92
2018-06-13T18:39:08.482Z,48.35
2018-06-13T18:41:37.650Z,48.57
2018-06-13T18:44:06.895Z,48.83
2018-06-13T18:46:35.924Z,49.30
2018-06-13T18:49:04.985Z,49.14
2018-06-13T18:51:33.862Z,49.63
2018-06-13T18:54:02.514Z,49.81
2018-06-13T18:56:31.311Z,50.48
2018-06-13T18:59:00.028Z,50.91
2018-06-13T19:01:28.876Z,50.39
2018-06-13T19:03:57.853Z,51.40
2018-06-13T19:06:26.721Z,51.10
2018-06-13T19:08:55.408Z,52.09
2018-06-13T19:11:24.097Z,51.49
2018-06-13T19:13:53.063Z,51.98
2018-06-13T19:16:21.816Z,52.85
2018-06-13T19:18:51.122Z,51.81
2018-06-13T19:21:20.684Z,51.88
2018-06-13T19:23:49.658Z,52.15
2018-06-13T19:26:18.649Z,52.54
2018-06-13T19:28:48.300Z,52.06
2018-06-13T19:31:18.046Z,52.14
2018-06-13T19:33:47.163Z,52.42
2018-06-13T19:36:16.162Z,52.04
2018-06-13T19:38:45.353Z,51.82
2018-06-13T19:41:14.850Z,51.97
2018-06-13T19:43:45.191Z,52.22
2018-06-13T19:46:14.560Z,52.16
2018-06-13T19:48:49.936Z,52.70
2018-06-13T19:51:18.726Z,52.93
2018-06-13T19:53:52.583Z,53.36
2018-06-13T19:56:26.462Z,53.43
2018-06-13T19:58:55.332Z,53.33
2018-06-13T20:01:24.063Z,53.59
2018-06-13T20:03:58.074Z,54.82
2018-06-13T20:06:38.685Z,55.70
2018-06-13T20:09:09.206Z,54.89
2018-06-13T20:11:38.305Z,55.22
2018-06-13T20:14:12.312Z,55.85
2018-06-13T20:16:56.396Z,56.41
2018-06-13T20:19:30.674Z,55.36
2018-06-13T20:22:00.440Z,55.79
2018-06-13T20:24:30.176Z,56.25
2018-06-13T20:27:04.363Z,56.15
2018-06-13T20:29:38.427Z,56.34
2018-06-13T20:32:07.550Z,56.13
2018-06-13T20:34:36.805Z,56.94
2018-06-13T20:37:05.917Z,56.68
2018-06-13T20:39:34.828Z,57.01
2018-06-13T20:42:04.090Z,57.50
2018-06-13T20:44:32.896Z,57.51
2018-06-13T20:47:02.021Z,57.67
2018-06-13T20:49:50.008Z,58.80
2018-06-13T20:52:44.543Z,58.72
2018-06-13T20:55:16.953Z,58.08
2018-06-13T20:57:54.156Z,57.37
2018-06-13T21:00:30.019Z,57.23
2018-06-13T21:03:10.841Z,58.38
2018-06-13T21:05:49.509Z,57.60
2018-06-13T21:08:31.862Z,58.05
2018-06-13T21:11:09.825Z,57.63
2018-06-13T21:13:40.888Z,57.96
2018-06-13T21:16:45.253Z,57.88
2018-06-13T21:19:24.080Z,58.43
2018-06-13T21:21:55.113Z,58.72
2018-06-13T21:24:30.540Z,59.02
2018-06-13T21:27:21.951Z,59.61
2018-06-13T21:32:39.437Z,59.93
2018-06-13T21:35:31.877Z,60.80
2018-06-13T21:38:13.158Z,60.50
2018-06-13T21:40:53.768Z,60.25
2018-06-13T21:43:31.686Z,60.39
2018-06-13T21:46:02.865Z,60.77
2018-06-13T21:48:55.270Z,60.74
2018-06-13T21:51:37.182Z,60.90
2018-06-13T21:54:10.593Z,60.91
2018-06-13T21:56:45.823Z,61.51
2018-06-13T21:59:23.791Z,61.56
2018-06-13T22:01:53.221Z,61.29
2018-06-13T22:04:26.944Z,61.32
2018-06-13T22:06:55.757Z,61.52
2018-06-13T22:09:28.975Z,62.68
2018-06-13T22:12:09.202Z,62.30
2018-06-13T22:14:37.808Z,61.63
2018-06-13T22:17:06.601Z,62.19
2018-06-13T22:19:35.285Z,61.62
2018-06-13T22:22:04.385Z,61.70
2018-06-13T22:24:33.274Z,61.87
2018-06-13T22:27:02.307Z,61.95
2018-06-13T22:29:31.511Z,62.81
2018-06-13T22:32:00.322Z,62.85
2018-06-13T22:34:28.938Z,62.56
2018-06-13T22:36:57.820Z,61.96
2018-06-13T22:39:26.612Z,62.29
2018-06-13T22:41:55.452Z,62.51
2018-06-13T22:44:24.294Z,62.39
2018-06-13T22:46:53.081Z,62.89
2018-06-13T22:49:21.853Z,63.16
2018-06-13T22:51:50.540Z,63.05
2018-06-13T22:54:19.451Z,63.65
2018-06-13T22:56:48.369Z,63.24
2018-06-13T22:59:17.286Z,63.18
2018-06-13T23:01:46.930Z,63.35
2018-06-13T23:04:15.684Z,63.21
2018-06-13T23:06:45.054Z,63.67
2018-06-13T23:09:13.767Z,64.27
2018-06-13T23:11:42.638Z,64.11
2018-06-13T23:14:11.588Z,63.90
2018-06-13T23:16:40.209Z,64.32
2018-06-13T23:19:08.869Z,64.08
2018-06-13T23:21:37.669Z,64.44
2018-06-13T23:24:06.412Z,64.43
2018-06-13T23:26:35.155Z,64.66
2018-06-13T23:29:03.902Z,64.69
2018-06-13T23:31:32.707Z,64.42
2018-06-13T23:34:01.289Z,64.59
2018-06-13T23:36:30.181Z,65.15
2018-06-13T23:38:58.737Z,64.56
2018-06-13T23:41:27.445Z,64.79
2018-06-13T23:43:56.450Z,65.04
2018-06-13T23:46:25.241Z,64.69
2018-06-13T23:48:54.212Z,65.12
2018-06-13T23:51:23.025Z,64.26
2018-06-13T23:53:51.637Z,64.47
2018-06-13T23:56:20.529Z,64.83
2018-06-13T23:58:49.135Z,64.47
